createdAt,value
2022-10-22T00:02:25.962Z,14.85
2022-10-22T00:04:53.896Z,15.00
2022-10-22T00:07:21.134Z,16.00
2022-10-22T00:09:47.934Z,16.55
2022-10-22T00:12:15.916Z,16.77
2022-10-22T00:14:43.273Z,15.45
2022-10-22T00:17:11.601Z,15.75
2022-10-22T00:19:38.953Z,15.85
2022-10-22T00:22:05.894Z,16.55
2022-10-22T00:24:33.947Z,15.20
2022-10-22T00:27:00.781Z,16.05
2022-10-22T00:29:27.561Z,16.30
2022-10-22T00:34:22.258Z,14.80
2022-10-22T00:36:50.157Z,17.60
2022-10-22T00:39:19.344Z,17.27
2022-10-22T00:41:48.207Z,17.17
2022-10-22T00:44:52.512Z,16.13
2022-10-22T00:47:19.953Z,17.15
2022-10-22T00:49:47.911Z,17.70
2022-10-22T00:52:14.816Z,16.85
2022-10-22T00:54:42.497Z,15.30
2022-10-22T00:57:09.635Z,17.27
2022-10-22T00:59:38.016Z,14.38
2022-10-22T01:02:04.771Z,13.98
2022-10-22T01:04:31.501Z,15.02
2022-10-22T01:06:58.139Z,14.73
2022-10-22T01:09:35.363Z,17.00
2022-10-22T01:12:08.138Z,15.27
2022-10-22T01:15:07.934Z,14.15
2022-10-22T01:17:43.314Z,13.75
2022-10-22T01:20:44.265Z,12.27
2022-10-22T01:23:36.279Z,15.32
2022-10-22T01:26:19.923Z,12.63
2022-10-22T01:29:12.911Z,13.98
2022-10-22T01:31:54.959Z,13.88
2022-10-22T01:34:23.072Z,15.10
2022-10-22T01:36:52.508Z,14.63
2022-10-22T01:39:20.376Z,13.60
2022-10-22T01:41:47.211Z,13.68
2022-10-22T01:44:29.134Z,13.02
2022-10-22T01:47:09.850Z,13.10
2022-10-22T01:50:15.314Z,14.25
2022-10-22T01:52:45.875Z,14.27
2022-10-22T01:55:34.239Z,13.85
2022-10-22T01:58:28.182Z,11.98
2022-10-22T02:01:06.408Z,12.63
2022-10-22T02:03:41.889Z,13.45
2022-10-22T02:06:15.862Z,14.63
2022-10-22T02:08:43.254Z,15.48
2022-10-22T02:11:12.520Z,14.55
2022-10-22T02:13:47.149Z,14.43
2022-10-22T02:16:18.736Z,12.13
2022-10-22T02:18:48.401Z,11.05
2022-10-22T02:21:16.247Z,11.05
2022-10-22T02:23:43.918Z,12.90
2022-10-22T02:26:30.123Z,13.15
2022-10-22T02:29:14.009Z,12.93
2022-10-22T02:31:43.554Z,13.10
2022-10-22T02:34:14.578Z,12.60
2022-10-22T02:36:46.638Z,13.43
2022-10-22T02:39:19.069Z,12.18
2022-10-22T02:41:45.842Z,13.48
2022-10-22T02:44:12.423Z,13.18
2022-10-22T02:46:40.195Z,11.50
2022-10-22T02:49:07.476Z,11.25
2022-10-22T02:51:34.449Z,11.95
2022-10-22T02:54:01.028Z,12.38
2022-10-22T02:56:27.612Z,11.13
2022-10-22T02:58:54.234Z,12.80
2022-10-22T03:01:21.492Z,12.82
2022-10-22T03:03:48.174Z,13.68
2022-10-22T03:06:15.141Z,11.85
2022-10-22T03:08:41.960Z,11.88
2022-10-22T03:11:08.707Z,11.50
2022-10-22T03:13:35.334Z,10.10
2022-10-22T03:16:02.096Z,11.10
2022-10-22T03:18:28.810Z,9.98
2022-10-22T03:21:20.838Z,9.68
2022-10-22T03:23:48.168Z,9.70
2022-10-22T03:26:15.222Z,9.50
2022-10-22T03:28:42.297Z,13.27
2022-10-22T03:31:08.940Z,11.68
2022-10-22T03:33:35.509Z,12.95
2022-10-22T03:36:02.326Z,12.65
2022-10-22T03:38:29.852Z,12.15
2022-10-22T03:40:56.560Z,13.93
2022-10-22T03:43:23.279Z,14.25
2022-10-22T03:45:49.855Z,13.70
2022-10-22T03:48:16.495Z,13.77
2022-10-22T03:50:43.061Z,15.20
2022-10-22T03:53:10.634Z,15.00
2022-10-22T03:55:38.223Z,15.70
2022-10-22T03:58:05.559Z,14.27
2022-10-22T04:00:32.649Z,14.60
2022-10-22T04:02:59.241Z,15.60
2022-10-22T04:05:25.885Z,12.95
2022-10-22T04:07:52.561Z,14.38
2022-10-22T04:10:19.211Z,14.93
2022-10-22T04:12:48.205Z,13.43
2022-10-22T04:15:14.896Z,13.38
2022-10-22T04:17:41.664Z,14.82
2022-10-22T04:20:09.234Z,15.20
2022-10-22T04:22:36.717Z,14.77
2022-10-22T04:25:04.665Z,13.90
2022-10-22T04:27:32.766Z,13.38
2022-10-22T04:29:59.384Z,14.30
2022-10-22T04:32:29.051Z,13.63
2022-10-22T04:34:55.642Z,13.05
2022-10-22T04:37:22.219Z,13.23
2022-10-22T04:39:49.065Z,11.38
2022-10-22T04:42:15.658Z,11.80
2022-10-22T04:44:42.255Z,12.98
2022-10-22T04:47:08.927Z,12.85
2022-10-22T04:49:35.515Z,12.55
2022-10-22T04:52:02.175Z,11.90
2022-10-22T04:54:32.184Z,13.65
2022-10-22T04:56:59.875Z,12.93
2022-10-22T04:59:26.570Z,13.43
2022-10-22T05:01:53.174Z,13.38
2022-10-22T05:04:19.835Z,11.82
2022-10-22T05:06:47.263Z,14.00
2022-10-22T05:09:17.961Z,13.02
2022-10-22T05:11:48.387Z,13.18
2022-10-22T05:14:17.570Z,12.85
2022-10-22T05:19:17.158Z,13.77
2022-10-22T05:21:44.082Z,11.38
2022-10-22T05:24:10.742Z,13.25
2022-10-22T05:26:37.355Z,14.30
2022-10-22T05:29:03.934Z,12.20
2022-10-22T05:31:30.517Z,12.50
2022-10-22T05:33:57.155Z,12.45
2022-10-22T05:36:23.893Z,11.80
2022-10-22T05:38:50.933Z,12.25
2022-10-22T05:41:23.110Z,13.57
2022-10-22T05:43:50.241Z,14.32
2022-10-22T05:46:22.479Z,13.50
2022-10-22T05:48:55.508Z,13.70
2022-10-22T05:51:22.967Z,14.07
2022-10-22T05:53:53.376Z,14.15
2022-10-22T05:56:20.049Z,13.90
2022-10-22T05:58:46.735Z,14.07
2022-10-22T06:01:20.092Z,13.23
2022-10-22T06:03:47.355Z,13.30
2022-10-22T06:06:46.247Z,14.38
2022-10-22T06:09:27.163Z,13.38
2022-10-22T06:11:54.728Z,12.43
2022-10-22T06:14:21.971Z,12.57
2022-10-22T06:16:49.351Z,13.45
2022-10-22T06:19:18.345Z,12.13
2022-10-22T06:21:46.002Z,11.60
2022-10-22T06:24:13.024Z,13.40
2022-10-22T06:26:40.100Z,13.80
2022-10-22T06:29:07.202Z,15.50
2022-10-22T06:31:36.813Z,14.50
2022-10-22T06:34:05.800Z,13.80
2022-10-22T06:36:32.873Z,15.02
2022-10-22T06:38:59.493Z,16.23
2022-10-22T06:41:28.802Z,16.67
2022-10-22T06:43:57.264Z,15.60
2022-10-22T06:46:24.621Z,17.85
2022-10-22T06:48:56.771Z,16.90
2022-10-22T06:51:23.677Z,16.88
2022-10-22T06:53:50.319Z,17.33
2022-10-22T06:56:20.514Z,15.43
2022-10-22T06:58:50.794Z,16.13
2022-10-22T07:01:19.405Z,16.45
2022-10-22T07:03:46.367Z,17.33
2022-10-22T07:06:14.906Z,14.60
2022-10-22T07:08:42.398Z,13.55
2022-10-22T07:11:17.831Z,14.25
2022-10-22T07:13:45.379Z,15.05
2022-10-22T07:16:12.826Z,13.98
2022-10-22T07:18:41.604Z,13.65
2022-10-22T07:21:09.994Z,13.52
2022-10-22T07:23:37.072Z,12.63
2022-10-22T07:26:07.259Z,12.60
2022-10-22T07:28:35.438Z,12.48
2022-10-22T07:31:02.408Z,11.07
2022-10-22T07:33:29.015Z,8.90
2022-10-22T07:36:00.790Z,8.38
2022-10-22T07:38:28.677Z,8.35
2022-10-22T07:40:55.787Z,6.70
2022-10-22T07:43:22.401Z,7.03
2022-10-22T07:45:49.086Z,6.93
2022-10-22T07:48:15.987Z,6.10
2022-10-22T07:53:14.312Z,5.25
2022-10-22T07:55:41.250Z,5.07
2022-10-22T07:58:07.981Z,4.60
2022-10-22T08:00:34.915Z,4.93
2022-10-22T08:03:01.620Z,4.72
2022-10-22T08:05:28.251Z,4.63
2022-10-22T08:07:54.862Z,4.32
2022-10-22T08:10:21.624Z,4.32
2022-10-22T08:12:48.291Z,4.68
2022-10-22T08:15:14.919Z,4.13
2022-10-22T08:17:41.702Z,4.10
2022-10-22T08:20:09.015Z,3.97
2022-10-22T08:22:35.595Z,3.47
2022-10-22T08:25:02.227Z,3.60
2022-10-22T08:27:28.892Z,3.80
2022-10-22T08:29:55.537Z,4.00
2022-10-22T08:32:22.240Z,4.10
2022-10-22T08:34:48.899Z,3.75
2022-10-22T08:37:17.032Z,3.53
2022-10-22T08:39:44.498Z,4.07
2022-10-22T08:42:39.436Z,3.97
2022-10-22T08:45:17.077Z,4.30
2022-10-22T08:48:02.424Z,4.22
2022-10-22T08:50:45.988Z,3.88
2022-10-22T08:53:16.442Z,5.00
2022-10-22T08:55:44.294Z,4.20
2022-10-22T08:58:32.047Z,4.03
2022-10-22T09:01:05.795Z,4.20
2022-10-22T09:03:49.890Z,4.40
2022-10-22T09:06:24.131Z,3.97
2022-10-22T09:08:51.790Z,3.63
2022-10-22T09:11:37.645Z,4.40
2022-10-22T09:14:04.995Z,4.45
2022-10-22T09:16:54.557Z,4.90
2022-10-22T09:19:40.052Z,5.25
2022-10-22T09:22:25.672Z,4.75
2022-10-22T09:25:01.927Z,4.30
2022-10-22T09:27:31.100Z,3.92
2022-10-22T09:29:57.872Z,4.50
2022-10-22T09:32:25.859Z,4.47
2022-10-22T09:34:56.829Z,4.30
2022-10-22T09:37:27.858Z,4.47
2022-10-22T09:39:56.652Z,4.53
2022-10-22T09:42:23.703Z,4.32
2022-10-22T09:44:55.704Z,4.75
2022-10-22T09:48:01.057Z,5.43
2022-10-22T09:50:42.624Z,5.38
2022-10-22T09:53:43.215Z,4.28
2022-10-22T09:56:17.385Z,4.03
2022-10-22T09:58:49.085Z,4.75
2022-10-22T10:01:32.058Z,4.05
2022-10-22T10:04:16.606Z,4.90
2022-10-22T10:06:44.652Z,4.55
2022-10-22T10:09:24.146Z,4.20
2022-10-22T10:12:11.919Z,4.32
2022-10-22T10:14:44.496Z,4.30
2022-10-22T10:17:48.086Z,4.40
2022-10-22T10:20:20.747Z,3.70
2022-10-22T10:23:20.598Z,3.63
2022-10-22T10:26:10.736Z,3.20
2022-10-22T10:28:53.727Z,4.10
2022-10-22T10:31:43.540Z,2.90
2022-10-22T10:34:17.782Z,2.80
2022-10-22T10:37:17.764Z,2.70
2022-10-22T10:40:03.565Z,3.15
2022-10-22T10:42:36.562Z,2.13
2022-10-22T10:45:15.723Z,2.40
2022-10-22T10:48:01.275Z,2.15
2022-10-22T10:50:53.530Z,2.53
2022-10-22T10:53:42.853Z,2.55
2022-10-22T10:56:47.274Z,2.10
2022-10-22T10:59:19.200Z,1.85
2022-10-22T11:02:00.588Z,1.88
2022-10-22T11:04:57.153Z,2.15
2022-10-22T11:07:34.693Z,1.88
2022-10-22T11:10:16.285Z,1.90
2022-10-22T11:12:51.291Z,2.42
2022-10-22T11:15:17.840Z,1.90
2022-10-22T11:17:47.304Z,1.63
2022-10-22T11:20:13.887Z,2.15
2022-10-22T11:23:18.147Z,1.80
2022-10-22T11:25:49.834Z,1.55
2022-10-22T11:31:18.126Z,1.30
2022-10-22T11:34:35.313Z,1.80
2022-10-22T11:37:04.760Z,1.70
2022-10-22T11:39:50.579Z,2.63
2022-10-22T11:42:22.837Z,1.80
2022-10-22T11:45:13.749Z,1.92
2022-10-22T11:50:46.955Z,1.10
2022-10-22T11:53:13.552Z,1.20
2022-10-22T11:55:48.057Z,1.17
2022-10-22T11:58:42.015Z,1.35
2022-10-22T12:01:08.571Z,1.20
2022-10-22T12:03:35.226Z,1.42
2022-10-22T12:06:15.462Z,1.40
2022-10-22T12:08:50.424Z,1.20
2022-10-22T12:11:24.382Z,1.20
2022-10-22T12:14:11.791Z,1.42
2022-10-22T12:16:55.561Z,1.25
2022-10-22T12:21:54.672Z,1.25
2022-10-22T12:24:23.591Z,1.40
2022-10-22T12:26:52.579Z,1.23
2022-10-22T12:29:23.625Z,1.40
2022-10-22T12:31:50.435Z,1.17
2022-10-22T12:34:21.169Z,1.13
2022-10-22T12:36:49.294Z,1.60
2022-10-22T12:39:19.834Z,1.95
2022-10-22T12:41:46.922Z,1.48
2022-10-22T12:44:16.738Z,1.50
2022-10-22T12:46:46.183Z,1.20
2022-10-22T12:49:28.390Z,1.65
2022-10-22T12:51:54.973Z,1.10
2022-10-22T12:54:29.334Z,1.60
2022-10-22T12:56:58.507Z,1.27
2022-10-22T12:59:35.050Z,1.20
2022-10-22T13:02:02.483Z,0.95
2022-10-22T13:04:37.607Z,1.10
2022-10-22T13:07:12.685Z,0.80
2022-10-22T13:09:39.506Z,0.95
2022-10-22T13:12:08.110Z,0.80
2022-10-22T13:14:38.030Z,0.82
2022-10-22T13:17:15.877Z,1.00
2022-10-22T13:19:54.479Z,1.10
2022-10-22T13:22:52.030Z,1.00
2022-10-22T13:25:26.153Z,0.70
2022-10-22T13:27:54.742Z,0.90
2022-10-22T13:30:27.249Z,1.02
2022-10-22T13:32:57.346Z,1.95
2022-10-22T13:35:28.566Z,1.00
2022-10-22T13:37:55.194Z,0.80
2022-10-22T13:40:22.002Z,1.05
2022-10-22T13:42:48.689Z,1.55
2022-10-22T13:45:15.466Z,0.85
2022-10-22T13:47:45.525Z,0.82
2022-10-22T13:50:15.455Z,0.82
2022-10-22T13:52:51.326Z,1.00
2022-10-22T13:55:17.885Z,0.85
2022-10-22T13:57:45.105Z,0.82
2022-10-22T14:00:14.084Z,0.98
2022-10-22T14:02:41.748Z,1.00
2022-10-22T14:05:09.544Z,0.85
2022-10-22T14:07:37.106Z,1.17
2022-10-22T14:10:14.027Z,1.00
2022-10-22T14:12:41.342Z,0.70
2022-10-22T14:15:09.730Z,0.80
2022-10-22T14:17:36.373Z,1.02
2022-10-22T14:20:03.222Z,1.33
2022-10-22T14:22:30.784Z,1.60
2022-10-22T14:24:57.490Z,0.90
2022-10-22T14:27:24.198Z,0.80
2022-10-22T14:29:50.894Z,0.93
2022-10-22T14:32:21.799Z,1.10
2022-10-22T14:34:48.454Z,1.10
2022-10-22T14:37:17.891Z,1.00
2022-10-22T14:39:46.980Z,1.40
2022-10-22T14:42:14.462Z,0.88
2022-10-22T14:44:41.108Z,0.80
2022-10-22T14:47:07.740Z,0.90
2022-10-22T14:49:34.441Z,0.82
2022-10-22T14:52:01.032Z,1.02
2022-10-22T14:54:27.708Z,0.85
2022-10-22T14:56:54.333Z,0.90
2022-10-22T14:59:20.934Z,0.90
2022-10-22T15:01:47.544Z,0.75
2022-10-22T15:04:14.127Z,1.00
2022-10-22T15:06:40.723Z,1.17
2022-10-22T15:09:07.325Z,1.20
2022-10-22T15:11:33.952Z,0.90
2022-10-22T15:14:00.537Z,1.00
2022-10-22T15:16:27.268Z,1.00
2022-10-22T15:18:53.828Z,1.00
2022-10-22T15:21:22.826Z,0.80
2022-10-22T15:23:49.944Z,0.80
2022-10-22T15:26:17.629Z,1.00
2022-10-22T15:28:44.240Z,1.00
2022-10-22T15:31:14.189Z,0.85
2022-10-22T15:33:42.377Z,1.00
2022-10-22T15:36:15.401Z,0.90
2022-10-22T15:38:42.205Z,1.00
2022-10-22T15:41:11.227Z,1.20
2022-10-22T15:43:37.842Z,0.90
2022-10-22T15:46:16.616Z,1.10
2022-10-22T15:48:43.760Z,0.93
2022-10-22T15:51:15.769Z,1.02
2022-10-22T15:53:42.839Z,1.42
2022-10-22T15:56:14.037Z,1.00
2022-10-22T15:58:40.633Z,1.05
2022-10-22T16:01:13.046Z,1.00
2022-10-22T16:03:41.014Z,1.02
2022-10-22T16:06:09.436Z,1.10
2022-10-22T16:08:36.805Z,1.13
2022-10-22T16:11:03.620Z,1.00
2022-10-22T16:13:30.919Z,0.93
2022-10-22T16:15:57.548Z,0.80
2022-10-22T16:18:24.160Z,0.98
2022-10-22T16:20:51.015Z,1.35
2022-10-22T16:23:18.861Z,1.52
2022-10-22T16:25:46.295Z,1.50
2022-10-22T16:28:12.927Z,1.40
2022-10-22T16:30:39.768Z,1.30
2022-10-22T16:33:07.550Z,1.25
2022-10-22T16:35:34.347Z,1.50
2022-10-22T16:38:01.044Z,1.88
2022-10-22T16:40:29.084Z,1.70
2022-10-22T16:42:55.631Z,1.90
2022-10-22T16:45:22.179Z,1.58
2022-10-22T16:47:49.176Z,2.63
2022-10-22T16:50:16.130Z,1.63
2022-10-22T16:52:42.742Z,1.65
2022-10-22T16:55:09.749Z,1.60
2022-10-22T16:57:36.405Z,2.17
2022-10-22T17:00:05.525Z,1.80
2022-10-22T17:02:32.090Z,2.70
2022-10-22T17:04:58.673Z,2.17
2022-10-22T17:07:25.261Z,1.88
2022-10-22T17:09:51.844Z,1.95
2022-10-22T17:12:18.468Z,1.80
2022-10-22T17:14:45.015Z,2.38
2022-10-22T17:17:11.613Z,2.08
2022-10-22T17:19:38.842Z,1.75
2022-10-22T17:22:05.711Z,2.15
2022-10-22T17:24:33.089Z,2.10
2022-10-22T17:26:59.785Z,2.10
2022-10-22T17:29:26.426Z,2.10
2022-10-22T17:31:53.251Z,2.22
2022-10-22T17:34:19.891Z,2.33
2022-10-22T17:36:46.583Z,2.10
2022-10-22T17:39:17.233Z,1.80
2022-10-22T17:41:43.893Z,2.40
2022-10-22T17:44:12.101Z,2.22
2022-10-22T17:46:38.931Z,2.33
2022-10-22T17:49:12.130Z,2.25
2022-10-22T17:51:38.675Z,2.65
2022-10-22T17:54:07.526Z,2.40
2022-10-22T17:56:37.314Z,2.75
2022-10-22T17:59:04.301Z,2.85
2022-10-22T18:01:33.946Z,2.17
2022-10-22T18:04:04.216Z,3.40
2022-10-22T18:06:31.342Z,2.25
2022-10-22T18:08:58.260Z,2.13
2022-10-22T18:11:27.102Z,1.63
2022-10-22T18:13:56.512Z,1.88
2022-10-22T18:16:24.072Z,1.63
2022-10-22T18:18:55.441Z,1.90
2022-10-22T18:21:25.034Z,2.10
2022-10-22T18:23:51.806Z,1.80
2022-10-22T18:26:22.953Z,2.10
2022-10-22T18:28:53.159Z,1.80
2022-10-22T18:31:22.743Z,1.83
2022-10-22T18:33:50.172Z,2.30
2022-10-22T18:36:20.118Z,2.00
2022-10-22T18:38:51.376Z,2.33
2022-10-22T18:41:18.602Z,1.95
2022-10-22T18:44:09.879Z,2.20
2022-10-22T18:46:39.145Z,2.08
2022-10-22T18:49:07.116Z,2.30
2022-10-22T18:51:36.699Z,3.50
2022-10-22T18:54:05.778Z,3.63
2022-10-22T18:56:44.836Z,3.72
2022-10-22T18:59:20.469Z,4.15
2022-10-22T19:01:47.277Z,3.40
2022-10-22T19:04:14.473Z,3.47
2022-10-22T19:06:45.301Z,3.42
2022-10-22T19:09:14.068Z,3.15
2022-10-22T19:11:41.954Z,3.95
2022-10-22T19:14:08.949Z,3.08
2022-10-22T19:16:37.645Z,3.50
2022-10-22T19:19:06.705Z,3.22
2022-10-22T19:21:33.540Z,3.42
2022-10-22T19:24:01.190Z,2.95
2022-10-22T19:26:30.641Z,3.30
2022-10-22T19:28:58.704Z,3.05
2022-10-22T19:31:26.586Z,2.80
2022-10-22T19:33:55.973Z,3.08
2022-10-22T19:36:24.454Z,3.20
2022-10-22T19:38:51.885Z,3.80
2022-10-22T19:41:20.459Z,3.05
2022-10-22T19:43:50.358Z,3.22
2022-10-22T19:46:17.413Z,2.33
2022-10-22T19:51:21.264Z,3.15
2022-10-22T19:53:48.664Z,3.17
2022-10-22T19:56:18.950Z,2.65
2022-10-22T19:58:46.144Z,2.92
2022-10-22T20:01:14.525Z,2.92
2022-10-22T20:03:41.857Z,2.90
2022-10-22T20:06:10.516Z,3.40
2022-10-22T20:08:38.048Z,4.03
2022-10-22T20:11:07.019Z,4.82
2022-10-22T20:13:35.177Z,3.60
2022-10-22T20:16:02.138Z,3.75
2022-10-22T20:18:28.898Z,4.13
2022-10-22T20:20:55.575Z,4.05
2022-10-22T20:23:22.196Z,3.58
2022-10-22T20:25:48.799Z,4.00
2022-10-22T20:28:15.559Z,4.03
2022-10-22T20:30:43.978Z,3.80
2022-10-22T20:33:10.758Z,3.20
2022-10-22T20:35:37.951Z,3.47
2022-10-22T20:38:06.453Z,3.22
2022-10-22T20:40:33.681Z,3.28
2022-10-22T20:43:01.517Z,3.22
2022-10-22T20:45:28.417Z,3.55
2022-10-22T20:48:02.169Z,3.58
2022-10-22T20:50:31.354Z,3.20
2022-10-22T20:52:58.591Z,3.70
2022-10-22T20:55:25.327Z,3.33
2022-10-22T20:57:51.958Z,3.20
2022-10-22T21:00:18.608Z,3.78
2022-10-22T21:02:45.292Z,3.22
2022-10-22T21:05:11.929Z,3.60
2022-10-22T21:07:38.900Z,3.50
2022-10-22T21:10:06.290Z,3.65
2022-10-22T21:12:32.908Z,4.53
2022-10-22T21:14:59.533Z,4.28
2022-10-22T21:17:26.349Z,3.53
2022-10-22T21:19:53.022Z,3.50
2022-10-22T21:22:19.626Z,3.30
2022-10-22T21:24:46.260Z,4.15
2022-10-22T21:27:12.837Z,3.72
2022-10-22T21:29:39.427Z,3.20
2022-10-22T21:32:06.015Z,3.63
2022-10-22T21:34:38.033Z,3.95
2022-10-22T21:37:05.819Z,4.10
2022-10-22T21:39:32.494Z,4.03
2022-10-22T21:41:59.158Z,3.83
2022-10-22T21:44:25.816Z,3.90
2022-10-22T21:46:52.564Z,4.00
2022-10-22T21:49:19.313Z,4.00
2022-10-22T21:51:45.890Z,4.03
2022-10-22T21:54:12.805Z,3.85
2022-10-22T21:56:41.411Z,3.40
2022-10-22T21:59:08.137Z,3.47
2022-10-22T22:01:35.160Z,3.55
2022-10-22T22:04:01.852Z,3.17
2022-10-22T22:06:33.156Z,3.10
2022-10-22T22:09:01.250Z,3.55
2022-10-22T22:11:28.930Z,3.55
2022-10-22T22:13:57.270Z,3.45
2022-10-22T22:16:28.646Z,3.38
2022-10-22T22:19:00.454Z,3.38
2022-10-22T22:21:27.631Z,3.13
2022-10-22T22:23:54.517Z,3.42
2022-10-22T22:26:26.862Z,3.25
2022-10-22T22:28:58.126Z,3.03
2022-10-22T22:31:26.162Z,3.30
2022-10-22T22:33:59.579Z,3.65
2022-10-22T22:36:26.455Z,3.50
2022-10-22T22:38:56.687Z,3.38
2022-10-22T22:41:23.542Z,3.00
2022-10-22T22:43:50.343Z,3.28
2022-10-22T22:46:17.247Z,2.78
2022-10-22T22:48:44.097Z,3.50
2022-10-22T22:51:11.102Z,3.75
2022-10-22T22:53:37.694Z,3.63
2022-10-22T22:56:27.943Z,4.32
2022-10-22T22:58:55.183Z,3.80
2022-10-22T23:01:27.990Z,4.65
2022-10-22T23:03:59.031Z,4.80
2022-10-22T23:06:28.646Z,4.57
2022-10-22T23:08:56.150Z,3.65
2022-10-22T23:11:24.407Z,3.78
2022-10-22T23:14:00.020Z,4.18
2022-10-22T23:16:30.280Z,3.90
2022-10-22T23:18:58.190Z,3.40
2022-10-22T23:21:27.943Z,3.47
2022-10-22T23:23:57.688Z,3.17
2022-10-22T23:26:36.771Z,3.17
2022-10-22T23:29:09.244Z,3.67
2022-10-22T23:31:35.877Z,3.38
2022-10-22T23:34:02.491Z,3.63
2022-10-22T23:36:29.637Z,3.58
2022-10-22T23:38:56.359Z,4.25
2022-10-22T23:41:23.030Z,3.15
2022-10-22T23:43:50.852Z,3.85
2022-10-22T23:46:18.118Z,3.80
2022-10-22T23:48:45.083Z,3.70
2022-10-22T23:51:15.018Z,4.00
2022-10-22T23:53:43.779Z,3.55
2022-10-22T23:56:13.749Z,3.65
2022-10-22T23:58:40.411Z,3.80
